sensor_id;sensor_type;location;lat;lon;timestamp;temperature;humidity
5924;DHT22;2987;50.884;14.818;2023-07-31T00:00:35;13.80;99.90
5924;DHT22;2987;50.884;14.818;2023-07-31T00:03:01;13.90;99.90
5924;DHT22;2987;50.884;14.818;2023-07-31T00:05:27;13.80;99.90
5924;DHT22;2987;50.884;14.818;2023-07-31T00:07:53;13.80;99.90
5924;DHT22;2987;50.884;14.818;2023-07-31T00:10:21;13.80;99.90
5924;DHT22;2987;50.884;14.818;2023-07-31T00:12:47;13.80;99.90
5924;DHT22;2987;50.884;14.818;2023-07-31T00:15:14;13.80;99.90
5924;DHT22;2987;50.884;14.818;2023-07-31T00:17:40;13.80;99.90
5924;DHT22;2987;50.884;14.818;2023-07-31T00:20:07;13.80;99.90
5924;DHT22;2987;50.884;14.818;2023-07-31T00:22:33;13.90;99.90
5924;DHT22;2987;50.884;14.818;2023-07-31T00:24:59;13.80;99.90
5924;DHT22;2987;50.884;14.818;2023-07-31T00:27:25;13.80;99.90
5924;DHT22;2987;50.884;14.818;2023-07-31T00:29:51;13.80;99.90
5924;DHT22;2987;50.884;14.818;2023-07-31T00:32:17;13.80;99.90
5924;DHT22;2987;50.884;14.818;2023-07-31T00:34:43;13.80;99.90
5924;DHT22;2987;50.884;14.818;2023-07-31T00:37:09;13.80;99.90
5924;DHT22;2987;50.884;14.818;2023-07-31T00:39:36;13.80;99.90
5924;DHT22;2987;50.884;14.818;2023-07-31T00:42:02;13.80;99.90
5924;DHT22;2987;50.884;14.818;2023-07-31T00:44:28;13.80;99.90
5924;DHT22;2987;50.884;14.818;2023-07-31T00:46:54;13.80;99.90
5924;DHT22;2987;50.884;14.818;2023-07-31T00:49:22;13.80;99.90
5924;DHT22;2987;50.884;14.818;2023-07-31T00:51:49;13.80;99.90
5924;DHT22;2987;50.884;14.818;2023-07-31T00:54:15;13.80;99.90
5924;DHT22;2987;50.884;14.818;2023-07-31T00:56:42;13.70;99.90
5924;DHT22;2987;50.884;14.818;2023-07-31T00:59:10;13.70;99.90
5924;DHT22;2987;50.884;14.818;2023-07-31T01:01:36;13.70;99.90
5924;DHT22;2987;50.884;14.818;2023-07-31T01:04:03;13.60;99.90
5924;DHT22;2987;50.884;14.818;2023-07-31T01:06:38;13.60;99.90
5924;DHT22;2987;50.884;14.818;2023-07-31T01:09:18;13.60;99.90
5924;DHT22;2987;50.884;14.818;2023-07-31T01:11:51;13.60;99.90
5924;DHT22;2987;50.884;14.818;2023-07-31T01:14:18;13.50;99.90
5924;DHT22;2987;50.884;14.818;2023-07-31T01:16:44;13.50;99.90
5924;DHT22;2987;50.884;14.818;2023-07-31T01:19:11;13.40;99.90
5924;DHT22;2987;50.884;14.818;2023-07-31T01:34:53;13.40;99.90
5924;DHT22;2987;50.884;14.818;2023-07-31T01:37:19;13.30;99.90
5924;DHT22;2987;50.884;14.818;2023-07-31T01:39:45;13.30;99.90
5924;DHT22;2987;50.884;14.818;2023-07-31T01:42:11;13.30;99.90
5924;DHT22;2987;50.884;14.818;2023-07-31T01:44:37;13.20;99.90
5924;DHT22;2987;50.884;14.818;2023-07-31T01:47:05;13.20;99.90
5924;DHT22;2987;50.884;14.818;2023-07-31T01:49:32;13.20;99.90
5924;DHT22;2987;50.884;14.818;2023-07-31T01:51:58;13.20;99.90
5924;DHT22;2987;50.884;14.818;2023-07-31T01:54:24;13.10;99.90
5924;DHT22;2987;50.884;14.818;2023-07-31T01:56:50;13.10;99.90
5924;DHT22;2987;50.884;14.818;2023-07-31T01:59:16;13.10;99.90
5924;DHT22;2987;50.884;14.818;2023-07-31T02:01:42;13.10;99.90
5924;DHT22;2987;50.884;14.818;2023-07-31T02:04:08;13.10;99.90
5924;DHT22;2987;50.884;14.818;2023-07-31T02:06:34;13.10;99.90
5924;DHT22;2987;50.884;14.818;2023-07-31T02:09:00;13.10;99.90
5924;DHT22;2987;50.884;14.818;2023-07-31T02:11:26;13.10;99.90
5924;DHT22;2987;50.884;14.818;2023-07-31T02:13:52;13.10;99.90
5924;DHT22;2987;50.884;14.818;2023-07-31T02:16:18;13.10;99.90
5924;DHT22;2987;50.884;14.818;2023-07-31T02:18:43;13.20;99.90
5924;DHT22;2987;50.884;14.818;2023-07-31T02:21:09;13.20;99.90
5924;DHT22;2987;50.884;14.818;2023-07-31T02:23:35;13.20;99.90
5924;DHT22;2987;50.884;14.818;2023-07-31T02:26:01;13.20;99.90
5924;DHT22;2987;50.884;14.818;2023-07-31T02:28:28;13.20;99.90
5924;DHT22;2987;50.884;14.818;2023-07-31T02:30:53;13.20;99.90
5924;DHT22;2987;50.884;14.818;2023-07-31T02:33:19;13.20;99.90
5924;DHT22;2987;50.884;14.818;2023-07-31T02:35:46;13.20;99.90
5924;DHT22;2987;50.884;14.818;2023-07-31T02:38:12;13.10;99.90
5924;DHT22;2987;50.884;14.818;2023-07-31T02:40:39;13.10;99.90
5924;DHT22;2987;50.884;14.818;2023-07-31T02:43:07;13.10;99.90
5924;DHT22;2987;50.884;14.818;2023-07-31T02:45:34;13.10;99.90
5924;DHT22;2987;50.884;14.818;2023-07-31T02:48:00;13.10;99.90
5924;DHT22;2987;50.884;14.818;2023-07-31T02:50:26;13.10;99.90
5924;DHT22;2987;50.884;14.818;2023-07-31T02:52:53;13.10;99.90
5924;DHT22;2987;50.884;14.818;2023-07-31T02:55:19;13.10;99.90
5924;DHT22;2987;50.884;14.818;2023-07-31T02:57:45;13.10;99.90
5924;DHT22;2987;50.884;14.818;2023-07-31T03:00:11;13.10;99.90
5924;DHT22;2987;50.884;14.818;2023-07-31T03:02:37;13.10;99.90
5924;DHT22;2987;50.884;14.818;2023-07-31T03:05:03;13.10;99.90
5924;DHT22;2987;50.884;14.818;2023-07-31T03:07:30;13.10;99.90
5924;DHT22;2987;50.884;14.818;2023-07-31T03:09:56;13.10;99.90
5924;DHT22;2987;50.884;14.818;2023-07-31T03:12:22;13.10;99.90
5924;DHT22;2987;50.884;14.818;2023-07-31T03:14:48;13.10;99.90
5924;DHT22;2987;50.884;14.818;2023-07-31T03:17:15;13.10;99.90
5924;DHT22;2987;50.884;14.818;2023-07-31T03:19:41;13.10;99.90
5924;DHT22;2987;50.884;14.818;2023-07-31T03:22:07;13.10;99.90
5924;DHT22;2987;50.884;14.818;2023-07-31T03:24:33;13.00;99.90
5924;DHT22;2987;50.884;14.818;2023-07-31T03:26:59;13.00;99.90
5924;DHT22;2987;50.884;14.818;2023-07-31T03:29:26;12.90;99.90
5924;DHT22;2987;50.884;14.818;2023-07-31T03:31:52;13.00;99.90
5924;DHT22;2987;50.884;14.818;2023-07-31T03:34:18;13.10;99.90
5924;DHT22;2987;50.884;14.818;2023-07-31T03:36:44;13.00;99.90
5924;DHT22;2987;50.884;14.818;2023-07-31T03:39:10;13.10;99.90
5924;DHT22;2987;50.884;14.818;2023-07-31T03:41:36;13.10;99.90
5924;DHT22;2987;50.884;14.818;2023-07-31T03:44:02;13.20;99.90
5924;DHT22;2987;50.884;14.818;2023-07-31T03:46:28;13.20;99.90
5924;DHT22;2987;50.884;14.818;2023-07-31T03:48:54;13.20;99.90
5924;DHT22;2987;50.884;14.818;2023-07-31T03:51:20;13.20;99.90
5924;DHT22;2987;50.884;14.818;2023-07-31T03:53:46;13.30;99.90
5924;DHT22;2987;50.884;14.818;2023-07-31T03:56:13;13.30;99.90
5924;DHT22;2987;50.884;14.818;2023-07-31T03:58:39;13.40;99.90
5924;DHT22;2987;50.884;14.818;2023-07-31T04:01:06;13.40;99.90
5924;DHT22;2987;50.884;14.818;2023-07-31T04:03:32;13.50;99.90
5924;DHT22;2987;50.884;14.818;2023-07-31T04:05:58;13.60;99.90
5924;DHT22;2987;50.884;14.818;2023-07-31T04:08:24;13.60;99.90
5924;DHT22;2987;50.884;14.818;2023-07-31T04:10:50;13.70;99.90
5924;DHT22;2987;50.884;14.818;2023-07-31T04:13:16;13.70;99.90
5924;DHT22;2987;50.884;14.818;2023-07-31T04:15:42;13.80;99.90
5924;DHT22;2987;50.884;14.818;2023-07-31T04:18:08;13.80;99.90
5924;DHT22;2987;50.884;14.818;2023-07-31T04:20:34;13.90;99.90
5924;DHT22;2987;50.884;14.818;2023-07-31T04:23:00;13.90;99.90
5924;DHT22;2987;50.884;14.818;2023-07-31T04:25:26;13.90;99.90
5924;DHT22;2987;50.884;14.818;2023-07-31T04:27:51;14.00;99.90
5924;DHT22;2987;50.884;14.818;2023-07-31T04:30:17;14.10;99.90
5924;DHT22;2987;50.884;14.818;2023-07-31T04:32:43;14.00;99.90
5924;DHT22;2987;50.884;14.818;2023-07-31T04:35:11;14.00;99.90
5924;DHT22;2987;50.884;14.818;2023-07-31T04:37:36;14.00;99.90
5924;DHT22;2987;50.884;14.818;2023-07-31T04:40:04;14.00;99.90
5924;DHT22;2987;50.884;14.818;2023-07-31T04:42:30;14.10;99.90
5924;DHT22;2987;50.884;14.818;2023-07-31T04:44:56;14.00;99.90
5924;DHT22;2987;50.884;14.818;2023-07-31T04:47:22;14.10;99.90
5924;DHT22;2987;50.884;14.818;2023-07-31T04:52:14;14.20;99.90
5924;DHT22;2987;50.884;14.818;2023-07-31T04:54:40;14.20;99.90
5924;DHT22;2987;50.884;14.818;2023-07-31T04:57:06;14.20;99.90
5924;DHT22;2987;50.884;14.818;2023-07-31T04:59:32;14.30;99.90
5924;DHT22;2987;50.884;14.818;2023-07-31T05:01:58;14.40;99.90
5924;DHT22;2987;50.884;14.818;2023-07-31T05:04:24;14.50;99.90
5924;DHT22;2987;50.884;14.818;2023-07-31T05:06:50;14.60;99.90
5924;DHT22;2987;50.884;14.818;2023-07-31T05:09:16;14.70;99.90
5924;DHT22;2987;50.884;14.818;2023-07-31T05:11:42;14.80;99.90
5924;DHT22;2987;50.884;14.818;2023-07-31T05:14:09;14.80;99.90
5924;DHT22;2987;50.884;14.818;2023-07-31T05:16:35;14.90;99.90
5924;DHT22;2987;50.884;14.818;2023-07-31T05:19:01;14.90;99.90
5924;DHT22;2987;50.884;14.818;2023-07-31T05:21:27;14.90;99.90
5924;DHT22;2987;50.884;14.818;2023-07-31T05:23:53;14.90;99.90
5924;DHT22;2987;50.884;14.818;2023-07-31T05:26:19;14.80;99.90
5924;DHT22;2987;50.884;14.818;2023-07-31T05:28:45;14.80;99.90
5924;DHT22;2987;50.884;14.818;2023-07-31T05:31:11;14.80;99.90
5924;DHT22;2987;50.884;14.818;2023-07-31T05:33:36;14.80;99.90
5924;DHT22;2987;50.884;14.818;2023-07-31T05:36:02;14.70;99.90
5924;DHT22;2987;50.884;14.818;2023-07-31T05:38:30;14.70;99.90
5924;DHT22;2987;50.884;14.818;2023-07-31T05:40:56;14.60;99.90
5924;DHT22;2987;50.884;14.818;2023-07-31T05:43:21;14.60;99.90
5924;DHT22;2987;50.884;14.818;2023-07-31T05:45:47;14.60;99.90
5924;DHT22;2987;50.884;14.818;2023-07-31T05:48:13;14.60;99.90
5924;DHT22;2987;50.884;14.818;2023-07-31T05:50:39;14.60;99.90
5924;DHT22;2987;50.884;14.818;2023-07-31T05:53:06;14.60;99.90
5924;DHT22;2987;50.884;14.818;2023-07-31T05:55:34;14.70;99.90
5924;DHT22;2987;50.884;14.818;2023-07-31T05:57:59;14.80;99.90
5924;DHT22;2987;50.884;14.818;2023-07-31T06:00:25;14.90;99.90
5924;DHT22;2987;50.884;14.818;2023-07-31T06:02:52;15.00;99.90
5924;DHT22;2987;50.884;14.818;2023-07-31T06:05:18;15.10;99.90
5924;DHT22;2987;50.884;14.818;2023-07-31T06:07:44;15.30;99.90
5924;DHT22;2987;50.884;14.818;2023-07-31T06:10:10;15.40;99.90
5924;DHT22;2987;50.884;14.818;2023-07-31T06:12:36;15.40;99.90
5924;DHT22;2987;50.884;14.818;2023-07-31T06:15:03;15.50;99.90
5924;DHT22;2987;50.884;14.818;2023-07-31T06:17:30;15.50;99.90
5924;DHT22;2987;50.884;14.818;2023-07-31T06:19:57;15.60;99.90
5924;DHT22;2987;50.884;14.818;2023-07-31T06:22:23;15.50;99.90
5924;DHT22;2987;50.884;14.818;2023-07-31T06:24:49;15.50;99.90
5924;DHT22;2987;50.884;14.818;2023-07-31T06:27:15;15.50;99.90
5924;DHT22;2987;50.884;14.818;2023-07-31T06:29:42;15.40;99.90
5924;DHT22;2987;50.884;14.818;2023-07-31T06:32:08;15.40;99.90
5924;DHT22;2987;50.884;14.818;2023-07-31T06:34:34;15.40;99.90
5924;DHT22;2987;50.884;14.818;2023-07-31T06:37:00;15.40;99.90
5924;DHT22;2987;50.884;14.818;2023-07-31T06:39:26;15.30;99.90
5924;DHT22;2987;50.884;14.818;2023-07-31T06:41:52;15.30;99.90
5924;DHT22;2987;50.884;14.818;2023-07-31T06:44:20;15.30;99.90
5924;DHT22;2987;50.884;14.818;2023-07-31T06:46:46;15.30;99.90
5924;DHT22;2987;50.884;14.818;2023-07-31T06:49:12;15.30;99.90
5924;DHT22;2987;50.884;14.818;2023-07-31T06:51:41;15.30;99.90
5924;DHT22;2987;50.884;14.818;2023-07-31T06:54:08;15.30;99.90
5924;DHT22;2987;50.884;14.818;2023-07-31T06:56:35;15.30;99.90
5924;DHT22;2987;50.884;14.818;2023-07-31T06:59:00;15.30;99.90
5924;DHT22;2987;50.884;14.818;2023-07-31T07:01:26;15.20;99.90
5924;DHT22;2987;50.884;14.818;2023-07-31T07:03:54;15.20;99.90
5924;DHT22;2987;50.884;14.818;2023-07-31T07:06:21;15.10;99.90
5924;DHT22;2987;50.884;14.818;2023-07-31T07:08:47;15.20;99.90
5924;DHT22;2987;50.884;14.818;2023-07-31T07:11:13;15.10;99.90
5924;DHT22;2987;50.884;14.818;2023-07-31T07:13:39;15.00;99.90
5924;DHT22;2987;50.884;14.818;2023-07-31T07:16:05;15.00;99.90
5924;DHT22;2987;50.884;14.818;2023-07-31T07:18:31;15.00;99.90
5924;DHT22;2987;50.884;14.818;2023-07-31T07:20:57;15.00;99.90
5924;DHT22;2987;50.884;14.818;2023-07-31T07:23:24;15.10;99.90
5924;DHT22;2987;50.884;14.818;2023-07-31T07:25:50;15.10;99.90
5924;DHT22;2987;50.884;14.818;2023-07-31T07:28:17;15.10;99.90
5924;DHT22;2987;50.884;14.818;2023-07-31T07:30:43;15.10;99.90
5924;DHT22;2987;50.884;14.818;2023-07-31T07:33:09;15.20;99.90
5924;DHT22;2987;50.884;14.818;2023-07-31T07:35:36;15.30;99.90
5924;DHT22;2987;50.884;14.818;2023-07-31T07:38:03;15.30;99.90
5924;DHT22;2987;50.884;14.818;2023-07-31T07:40:29;15.30;99.90
5924;DHT22;2987;50.884;14.818;2023-07-31T07:42:55;15.40;99.90
5924;DHT22;2987;50.884;14.818;2023-07-31T07:45:21;15.40;99.90
5924;DHT22;2987;50.884;14.818;2023-07-31T07:47:47;15.30;99.90
5924;DHT22;2987;50.884;14.818;2023-07-31T07:50:13;15.40;99.90
5924;DHT22;2987;50.884;14.818;2023-07-31T07:52:39;15.40;99.90
5924;DHT22;2987;50.884;14.818;2023-07-31T07:55:05;15.40;99.90
5924;DHT22;2987;50.884;14.818;2023-07-31T07:57:32;15.40;99.90
5924;DHT22;2987;50.884;14.818;2023-07-31T07:59:58;15.50;99.90
5924;DHT22;2987;50.884;14.818;2023-07-31T08:02:24;15.50;99.90
5924;DHT22;2987;50.884;14.818;2023-07-31T08:04:50;15.60;99.90
5924;DHT22;2987;50.884;14.818;2023-07-31T08:07:16;15.70;99.90
5924;DHT22;2987;50.884;14.818;2023-07-31T08:09:42;15.70;99.90
5924;DHT22;2987;50.884;14.818;2023-07-31T08:12:08;15.80;99.90
5924;DHT22;2987;50.884;14.818;2023-07-31T08:14:34;15.80;99.90
5924;DHT22;2987;50.884;14.818;2023-07-31T08:17:02;15.90;99.90
5924;DHT22;2987;50.884;14.818;2023-07-31T08:19:28;15.90;99.90
5924;DHT22;2987;50.884;14.818;2023-07-31T08:21:54;15.90;99.90
5924;DHT22;2987;50.884;14.818;2023-07-31T08:24:20;15.90;99.90
5924;DHT22;2987;50.884;14.818;2023-07-31T08:26:47;16.00;99.90
5924;DHT22;2987;50.884;14.818;2023-07-31T08:29:14;16.00;99.90
5924;DHT22;2987;50.884;14.818;2023-07-31T08:31:40;16.00;99.90
5924;DHT22;2987;50.884;14.818;2023-07-31T08:34:06;16.00;99.90
5924;DHT22;2987;50.884;14.818;2023-07-31T08:36:32;16.00;99.90
5924;DHT22;2987;50.884;14.818;2023-07-31T08:38:58;16.00;99.90
5924;DHT22;2987;50.884;14.818;2023-07-31T08:41:23;16.00;99.90
5924;DHT22;2987;50.884;14.818;2023-07-31T08:43:50;16.00;99.90
5924;DHT22;2987;50.884;14.818;2023-07-31T08:46:18;16.00;99.90
5924;DHT22;2987;50.884;14.818;2023-07-31T08:48:46;16.00;99.90
5924;DHT22;2987;50.884;14.818;2023-07-31T08:51:14;16.00;99.90
5924;DHT22;2987;50.884;14.818;2023-07-31T08:53:41;16.10;99.90
5924;DHT22;2987;50.884;14.818;2023-07-31T08:58:35;16.20;99.90
5924;DHT22;2987;50.884;14.818;2023-07-31T09:01:04;16.30;99.90
5924;DHT22;2987;50.884;14.818;2023-07-31T09:03:34;16.40;99.90
5924;DHT22;2987;50.884;14.818;2023-07-31T09:06:03;16.50;99.90
5924;DHT22;2987;50.884;14.818;2023-07-31T09:08:32;16.60;99.90
5924;DHT22;2987;50.884;14.818;2023-07-31T09:11:01;16.60;99.90
5924;DHT22;2987;50.884;14.818;2023-07-31T09:13:30;16.80;99.90
5924;DHT22;2987;50.884;14.818;2023-07-31T09:15:57;16.80;99.90
5924;DHT22;2987;50.884;14.818;2023-07-31T09:18:23;16.90;99.90
5924;DHT22;2987;50.884;14.818;2023-07-31T09:21:05;16.90;99.90
5924;DHT22;2987;50.884;14.818;2023-07-31T09:23:47;17.00;99.90
5924;DHT22;2987;50.884;14.818;2023-07-31T09:29:38;17.40;99.90
5924;DHT22;2987;50.884;14.818;2023-07-31T09:32:04;17.60;99.90
5924;DHT22;2987;50.884;14.818;2023-07-31T09:34:37;17.80;99.90
5924;DHT22;2987;50.884;14.818;2023-07-31T09:37:05;17.90;99.90
5924;DHT22;2987;50.884;14.818;2023-07-31T09:39:31;18.00;99.90
5924;DHT22;2987;50.884;14.818;2023-07-31T09:41:57;18.20;99.90
5924;DHT22;2987;50.884;14.818;2023-07-31T09:44:43;18.20;99.90
5924;DHT22;2987;50.884;14.818;2023-07-31T09:49:49;18.30;99.90
5924;DHT22;2987;50.884;14.818;2023-07-31T09:52:16;18.30;99.90
5924;DHT22;2987;50.884;14.818;2023-07-31T09:54:42;18.50;99.90
5924;DHT22;2987;50.884;14.818;2023-07-31T09:57:09;18.60;99.90
5924;DHT22;2987;50.884;14.818;2023-07-31T09:59:36;18.70;99.90
5924;DHT22;2987;50.884;14.818;2023-07-31T10:02:03;18.80;99.90
5924;DHT22;2987;50.884;14.818;2023-07-31T10:04:29;18.80;99.90
5924;DHT22;2987;50.884;14.818;2023-07-31T10:06:57;18.80;99.90
5924;DHT22;2987;50.884;14.818;2023-07-31T10:09:26;18.90;99.90
5924;DHT22;2987;50.884;14.818;2023-07-31T10:11:59;18.90;99.90
5924;DHT22;2987;50.884;14.818;2023-07-31T10:14:26;18.90;99.90
5924;DHT22;2987;50.884;14.818;2023-07-31T10:16:54;19.10;99.90
5924;DHT22;2987;50.884;14.818;2023-07-31T10:19:21;19.20;99.90
5924;DHT22;2987;50.884;14.818;2023-07-31T10:24:15;19.50;99.90
5924;DHT22;2987;50.884;14.818;2023-07-31T10:26:45;19.50;99.90
5924;DHT22;2987;50.884;14.818;2023-07-31T10:29:12;19.50;99.90
5924;DHT22;2987;50.884;14.818;2023-07-31T10:31:39;19.60;99.90
5924;DHT22;2987;50.884;14.818;2023-07-31T10:34:05;19.60;99.90
5924;DHT22;2987;50.884;14.818;2023-07-31T10:38:58;19.70;99.90
5924;DHT22;2987;50.884;14.818;2023-07-31T10:41:29;19.80;99.90
5924;DHT22;2987;50.884;14.818;2023-07-31T10:43:59;19.90;99.90
5924;DHT22;2987;50.884;14.818;2023-07-31T10:46:25;19.90;99.90
5924;DHT22;2987;50.884;14.818;2023-07-31T10:48:59;20.00;99.90
5924;DHT22;2987;50.884;14.818;2023-07-31T10:54:16;20.30;99.90
5924;DHT22;2987;50.884;14.818;2023-07-31T10:56:45;20.70;99.90
5924;DHT22;2987;50.884;14.818;2023-07-31T10:59:13;21.10;99.90
5924;DHT22;2987;50.884;14.818;2023-07-31T11:01:56;21.40;99.90
5924;DHT22;2987;50.884;14.818;2023-07-31T11:04:26;21.40;99.90
5924;DHT22;2987;50.884;14.818;2023-07-31T11:06:57;21.40;99.90
5924;DHT22;2987;50.884;14.818;2023-07-31T11:09:27;21.30;99.90
5924;DHT22;2987;50.884;14.818;2023-07-31T11:11:55;21.10;99.90
5924;DHT22;2987;50.884;14.818;2023-07-31T11:14:22;21.20;99.90
5924;DHT22;2987;50.884;14.818;2023-07-31T11:16:50;21.10;99.90
5924;DHT22;2987;50.884;14.818;2023-07-31T11:19:25;21.10;99.90
5924;DHT22;2987;50.884;14.818;2023-07-31T11:21:52;21.10;99.90
5924;DHT22;2987;50.884;14.818;2023-07-31T11:24:19;21.20;99.90
5924;DHT22;2987;50.884;14.818;2023-07-31T11:26:53;21.10;99.90
5924;DHT22;2987;50.884;14.818;2023-07-31T11:29:20;21.00;99.90
5924;DHT22;2987;50.884;14.818;2023-07-31T11:31:46;21.00;99.90
5924;DHT22;2987;50.884;14.818;2023-07-31T11:34:13;21.00;99.90
5924;DHT22;2987;50.884;14.818;2023-07-31T11:36:39;20.80;99.90
5924;DHT22;2987;50.884;14.818;2023-07-31T11:39:07;21.00;99.90
5924;DHT22;2987;50.884;14.818;2023-07-31T11:41:34;21.40;99.90
5924;DHT22;2987;50.884;14.818;2023-07-31T11:44:01;21.80;99.90
5924;DHT22;2987;50.884;14.818;2023-07-31T11:46:30;22.00;99.90
5924;DHT22;2987;50.884;14.818;2023-07-31T11:49:00;22.10;99.90
5924;DHT22;2987;50.884;14.818;2023-07-31T11:51:27;22.40;99.90
5924;DHT22;2987;50.884;14.818;2023-07-31T11:53:58;22.70;99.90
5924;DHT22;2987;50.884;14.818;2023-07-31T11:56:25;22.80;99.90
5924;DHT22;2987;50.884;14.818;2023-07-31T11:59:00;22.70;99.90
5924;DHT22;2987;50.884;14.818;2023-07-31T12:01:28;22.50;99.90
5924;DHT22;2987;50.884;14.818;2023-07-31T12:03:55;22.40;99.90
5924;DHT22;2987;50.884;14.818;2023-07-31T12:06:22;22.40;99.90
5924;DHT22;2987;50.884;14.818;2023-07-31T12:09:03;22.30;99.90
5924;DHT22;2987;50.884;14.818;2023-07-31T12:11:31;22.20;99.90
5924;DHT22;2987;50.884;14.818;2023-07-31T12:13:57;22.20;99.90
5924;DHT22;2987;50.884;14.818;2023-07-31T12:16:26;22.30;99.90
5924;DHT22;2987;50.884;14.818;2023-07-31T12:18:54;22.40;99.90
5924;DHT22;2987;50.884;14.818;2023-07-31T12:21:20;22.40;99.90
5924;DHT22;2987;50.884;14.818;2023-07-31T12:23:46;22.30;99.90
5924;DHT22;2987;50.884;14.818;2023-07-31T12:26:14;22.10;99.90
5924;DHT22;2987;50.884;14.818;2023-07-31T12:28:44;22.00;99.90
5924;DHT22;2987;50.884;14.818;2023-07-31T12:31:14;22.00;99.90
5924;DHT22;2987;50.884;14.818;2023-07-31T12:33:43;21.90;99.90
5924;DHT22;2987;50.884;14.818;2023-07-31T12:36:11;21.80;99.90
5924;DHT22;2987;50.884;14.818;2023-07-31T12:38:38;21.70;99.90
5924;DHT22;2987;50.884;14.818;2023-07-31T12:41:04;21.60;99.90
5924;DHT22;2987;50.884;14.818;2023-07-31T12:43:33;21.80;99.90
5924;DHT22;2987;50.884;14.818;2023-07-31T12:46:00;21.90;99.90
5924;DHT22;2987;50.884;14.818;2023-07-31T12:48:26;21.90;99.90
5924;DHT22;2987;50.884;14.818;2023-07-31T12:50:52;21.90;99.90
5924;DHT22;2987;50.884;14.818;2023-07-31T12:53:18;22.00;99.90
5924;DHT22;2987;50.884;14.818;2023-07-31T12:55:44;22.00;99.90
5924;DHT22;2987;50.884;14.818;2023-07-31T12:58:09;22.00;99.90
5924;DHT22;2987;50.884;14.818;2023-07-31T13:00:36;21.90;99.90
5924;DHT22;2987;50.884;14.818;2023-07-31T13:03:03;21.80;99.90
5924;DHT22;2987;50.884;14.818;2023-07-31T13:05:29;21.80;99.90
5924;DHT22;2987;50.884;14.818;2023-07-31T13:07:56;21.70;99.90
5924;DHT22;2987;50.884;14.818;2023-07-31T13:10:23;21.60;99.90
5924;DHT22;2987;50.884;14.818;2023-07-31T13:12:50;21.60;99.90
5924;DHT22;2987;50.884;14.818;2023-07-31T13:15:16;21.60;99.90
5924;DHT22;2987;50.884;14.818;2023-07-31T13:17:42;21.70;99.90
5924;DHT22;2987;50.884;14.818;2023-07-31T13:20:08;21.80;99.90
5924;DHT22;2987;50.884;14.818;2023-07-31T13:22:35;22.00;99.90
5924;DHT22;2987;50.884;14.818;2023-07-31T13:25:00;22.10;99.90
5924;DHT22;2987;50.884;14.818;2023-07-31T13:27:26;22.30;99.90
5924;DHT22;2987;50.884;14.818;2023-07-31T13:29:52;22.60;99.90
5924;DHT22;2987;50.884;14.818;2023-07-31T13:32:19;22.90;99.90
5924;DHT22;2987;50.884;14.818;2023-07-31T13:34:46;23.10;99.90
5924;DHT22;2987;50.884;14.818;2023-07-31T13:37:13;23.30;99.90
5924;DHT22;2987;50.884;14.818;2023-07-31T13:39:41;23.40;99.90
5924;DHT22;2987;50.884;14.818;2023-07-31T13:42:08;23.40;99.90
5924;DHT22;2987;50.884;14.818;2023-07-31T13:44:38;23.60;99.90
5924;DHT22;2987;50.884;14.818;2023-07-31T13:47:05;23.80;99.90
5924;DHT22;2987;50.884;14.818;2023-07-31T13:49:32;24.00;99.90
5924;DHT22;2987;50.884;14.818;2023-07-31T13:51:59;24.10;99.90
5924;DHT22;2987;50.884;14.818;2023-07-31T13:54:25;24.00;99.90
5924;DHT22;2987;50.884;14.818;2023-07-31T13:56:52;23.90;99.90
5924;DHT22;2987;50.884;14.818;2023-07-31T13:59:18;23.70;99.90
5924;DHT22;2987;50.884;14.818;2023-07-31T14:01:44;23.50;99.90
5924;DHT22;2987;50.884;14.818;2023-07-31T14:04:10;23.60;99.90
5924;DHT22;2987;50.884;14.818;2023-07-31T14:06:36;23.80;99.90
5924;DHT22;2987;50.884;14.818;2023-07-31T14:09:03;24.00;99.90
5924;DHT22;2987;50.884;14.818;2023-07-31T14:11:31;24.00;99.90
5924;DHT22;2987;50.884;14.818;2023-07-31T14:13:57;24.00;99.90
5924;DHT22;2987;50.884;14.818;2023-07-31T14:16:24;23.80;99.90
5924;DHT22;2987;50.884;14.818;2023-07-31T14:18:50;23.70;99.90
5924;DHT22;2987;50.884;14.818;2023-07-31T14:21:16;23.70;99.90
5924;DHT22;2987;50.884;14.818;2023-07-31T14:23:42;23.60;99.90
5924;DHT22;2987;50.884;14.818;2023-07-31T14:26:08;23.70;99.90
5924;DHT22;2987;50.884;14.818;2023-07-31T14:28:34;23.70;99.90
5924;DHT22;2987;50.884;14.818;2023-07-31T14:31:00;23.60;99.90
5924;DHT22;2987;50.884;14.818;2023-07-31T14:33:26;23.50;99.90
5924;DHT22;2987;50.884;14.818;2023-07-31T14:35:52;23.60;99.90
5924;DHT22;2987;50.884;14.818;2023-07-31T14:38:18;23.50;99.90
5924;DHT22;2987;50.884;14.818;2023-07-31T14:40:44;23.50;99.90
5924;DHT22;2987;50.884;14.818;2023-07-31T14:43:10;23.50;99.90
5924;DHT22;2987;50.884;14.818;2023-07-31T14:45:36;23.40;99.90
5924;DHT22;2987;50.884;14.818;2023-07-31T14:48:02;23.40;99.90
5924;DHT22;2987;50.884;14.818;2023-07-31T14:50:28;23.30;99.90
5924;DHT22;2987;50.884;14.818;2023-07-31T14:52:55;23.20;99.90
5924;DHT22;2987;50.884;14.818;2023-07-31T14:55:21;23.20;99.90
5924;DHT22;2987;50.884;14.818;2023-07-31T14:57:47;23.40;99.90
5924;DHT22;2987;50.884;14.818;2023-07-31T15:00:13;23.60;99.90
5924;DHT22;2987;50.884;14.818;2023-07-31T15:02:40;23.80;99.90
5924;DHT22;2987;50.884;14.818;2023-07-31T15:05:07;24.00;99.90
5924;DHT22;2987;50.884;14.818;2023-07-31T15:07:33;24.30;99.90
5924;DHT22;2987;50.884;14.818;2023-07-31T15:10:01;24.50;99.90
5924;DHT22;2987;50.884;14.818;2023-07-31T15:12:28;24.70;99.90
5924;DHT22;2987;50.884;14.818;2023-07-31T15:14:54;24.60;99.90
5924;DHT22;2987;50.884;14.818;2023-07-31T15:17:20;24.50;99.90
5924;DHT22;2987;50.884;14.818;2023-07-31T15:19:46;24.20;99.90
5924;DHT22;2987;50.884;14.818;2023-07-31T15:22:12;24.20;99.90
5924;DHT22;2987;50.884;14.818;2023-07-31T15:24:39;24.20;99.90
5924;DHT22;2987;50.884;14.818;2023-07-31T15:27:05;24.00;99.90
5924;DHT22;2987;50.884;14.818;2023-07-31T15:29:31;23.80;99.90
5924;DHT22;2987;50.884;14.818;2023-07-31T15:31:59;23.90;99.90
5924;DHT22;2987;50.884;14.818;2023-07-31T15:34:24;23.90;99.90
5924;DHT22;2987;50.884;14.818;2023-07-31T15:36:50;23.90;99.90
5924;DHT22;2987;50.884;14.818;2023-07-31T15:39:16;23.90;99.90
5924;DHT22;2987;50.884;14.818;2023-07-31T15:41:42;23.80;99.90
5924;DHT22;2987;50.884;14.818;2023-07-31T15:44:08;23.60;99.90
5924;DHT22;2987;50.884;14.818;2023-07-31T15:46:34;23.40;99.90
5924;DHT22;2987;50.884;14.818;2023-07-31T15:49:00;23.30;99.90
5924;DHT22;2987;50.884;14.818;2023-07-31T15:51:26;23.10;99.90
5924;DHT22;2987;50.884;14.818;2023-07-31T15:53:52;23.10;99.90
5924;DHT22;2987;50.884;14.818;2023-07-31T15:56:19;22.90;99.90
5924;DHT22;2987;50.884;14.818;2023-07-31T15:58:45;22.90;99.90
5924;DHT22;2987;50.884;14.818;2023-07-31T16:01:11;22.90;99.90
5924;DHT22;2987;50.884;14.818;2023-07-31T16:03:38;22.90;99.90
5924;DHT22;2987;50.884;14.818;2023-07-31T16:06:04;23.00;99.90
5924;DHT22;2987;50.884;14.818;2023-07-31T16:10:56;23.10;99.90
5924;DHT22;2987;50.884;14.818;2023-07-31T16:13:22;23.10;99.90
5924;DHT22;2987;50.884;14.818;2023-07-31T16:15:48;23.10;99.90